Time;durP1;ratioP1;P1;durP2;ratioP2;P2;SDS_P1;SDS_P2;PMS_P1;PMS_P2;Temp;Humidity;BMP_temperature;BMP_pressure;BME280_temperature;BME280_humidity;BME280_pressure;Samples;Min_cycle;Max_cycle;Signal;HPM_P1;HPM_P2
2022/05/21 00:00:28;;;;;;;12.77;2.60;;;;;;;;;;5034364;28;20026;-75
2022/05/21 00:02:54;;;;;;;13.82;2.72;;;;;;;;;;5034412;28;20038;-76
2022/05/21 00:05:21;;;;;;;16.50;2.83;;;;;;;;;;5039582;28;20034;-76
2022/05/21 00:07:48;;;;;;;14.18;2.40;;;;;;;;;;5047808;28;20474;-77
2022/05/21 00:10:14;;;;;;;18.95;3.10;;;;;;;;;;5038637;28;20030;-77
2022/05/21 00:12:40;;;;;;;16.98;3.13;;;;;;;;;;5038073;28;20032;-76
2022/05/21 00:15:06;;;;;;;10.30;2.85;;;;;;;;;;5037034;28;20033;-77
2022/05/21 00:17:32;;;;;;;9.05;2.22;;;;;;;;;;5036628;28;20025;-78
2022/05/21 00:19:59;;;;;;;12.52;2.67;;;;;;;;;;5036764;28;20061;-75
2022/05/21 00:22:25;;;;;;;16.30;2.92;;;;;;;;;;5035041;28;20070;-77
2022/05/21 00:24:51;;;;;;;18.10;3.28;;;;;;;;;;5034148;28;20100;-76
2022/05/21 00:27:17;;;;;;;15.30;3.00;;;;;;;;;;5033814;28;20034;-76
2022/05/21 00:29:43;;;;;;;17.15;3.00;;;;;;;;;;5033670;28;20041;-75
2022/05/21 00:32:09;;;;;;;24.10;5.88;;;;;;;;;;5044037;28;20035;-76
2022/05/21 00:34:35;;;;;;;14.68;3.95;;;;;;;;;;5034898;28;20061;-75
2022/05/21 00:37:01;;;;;;;13.90;3.60;;;;;;;;;;5037764;28;20045;-77
2022/05/21 00:39:28;;;;;;;8.27;2.92;;;;;;;;;;5037462;28;20108;-76
2022/05/21 00:41:53;;;;;;;13.23;3.47;;;;;;;;;;5040101;28;20029;-78
2022/05/21 00:44:20;;;;;;;23.92;4.55;;;;;;;;;;5039602;28;20029;-77
2022/05/21 00:46:47;;;;;;;23.50;3.78;;;;;;;;;;5044581;28;20037;-77
2022/05/21 00:49:19;;;;;;;12.52;3.53;;;;;;;;;;5044306;28;20148;-76
2022/05/21 00:51:48;;;;;;;10.55;3.17;;;;;;;;;;5044133;28;20025;-77
2022/05/21 00:54:16;;;;;;;11.00;3.45;;;;;;;;;;5041342;28;20025;-77
2022/05/21 00:56:47;;;;;;;10.70;3.65;;;;;;;;;;5041461;28;20049;-75
2022/05/21 01:01:59;;;;;;;15.30;3.67;;;;;;;;;;5041334;28;20044;-76
2022/05/21 01:04:26;;;;;;;10.82;3.30;;;;;;;;;;5039522;28;20025;-76
2022/05/21 01:06:54;;;;;;;13.75;3.45;;;;;;;;;;5038848;28;20502;-76
2022/05/21 01:09:19;;;;;;;15.15;4.53;;;;;;;;;;5039868;28;20106;-76
2022/05/21 01:11:45;;;;;;;12.70;3.47;;;;;;;;;;5037601;28;20544;-78
2022/05/21 01:14:12;;;;;;;11.65;4.25;;;;;;;;;;5037520;28;20021;-77
2022/05/21 01:16:40;;;;;;;12.00;3.53;;;;;;;;;;5037195;28;20051;-77
2022/05/21 01:19:08;;;;;;;11.85;3.83;;;;;;;;;;5037824;28;20045;-76
2022/05/21 01:21:35;;;;;;;15.70;4.03;;;;;;;;;;5033847;28;20026;-75
2022/05/21 01:24:01;;;;;;;8.05;3.50;;;;;;;;;;5035859;28;20017;-77
2022/05/21 01:26:27;;;;;;;18.48;4.22;;;;;;;;;;5038264;28;20032;-78
2022/05/21 01:28:54;;;;;;;13.75;3.70;;;;;;;;;;5036469;28;20029;-75
2022/05/21 01:31:20;;;;;;;15.18;4.03;;;;;;;;;;5032548;28;20513;-76
2022/05/21 01:33:46;;;;;;;13.95;4.13;;;;;;;;;;5032606;28;20021;-76
2022/05/21 01:36:14;;;;;;;11.88;3.88;;;;;;;;;;5032244;28;20026;-76
2022/05/21 01:38:40;;;;;;;15.80;3.90;;;;;;;;;;5032330;28;20105;-76
2022/05/21 01:41:09;;;;;;;14.75;4.07;;;;;;;;;;5032492;28;20060;-76
2022/05/21 01:46:19;;;;;;;14.93;4.18;;;;;;;;;;5032561;28;20076;-76
2022/05/21 01:48:46;;;;;;;12.60;3.90;;;;;;;;;;5032567;28;20478;-76
2022/05/21 01:51:12;;;;;;;8.50;3.05;;;;;;;;;;5032849;28;20029;-75
2022/05/21 01:53:39;;;;;;;12.00;3.75;;;;;;;;;;5032417;28;20026;-75
2022/05/21 01:56:05;;;;;;;12.63;3.88;;;;;;;;;;5032037;28;20029;-76
2022/05/21 01:58:32;;;;;;;11.27;3.60;;;;;;;;;;5032804;28;20018;-76
2022/05/21 02:00:58;;;;;;;11.13;2.83;;;;;;;;;;5032712;28;20505;-75
2022/05/21 02:03:25;;;;;;;15.32;3.42;;;;;;;;;;5033338;28;20025;-75
2022/05/21 02:05:51;;;;;;;14.55;3.25;;;;;;;;;;5034719;28;20226;-75
2022/05/21 02:08:17;;;;;;;13.23;3.50;;;;;;;;;;5041084;28;20029;-76
2022/05/21 02:10:43;;;;;;;13.10;3.47;;;;;;;;;;5031946;28;20391;-74
2022/05/21 02:13:13;;;;;;;12.27;3.08;;;;;;;;;;5032097;28;20433;-76
2022/05/21 02:15:39;;;;;;;15.35;3.35;;;;;;;;;;5031906;28;20026;-75
2022/05/21 02:18:05;;;;;;;11.45;3.78;;;;;;;;;;5031895;28;20036;-75
2022/05/21 02:20:31;;;;;;;16.92;3.85;;;;;;;;;;5032086;28;20112;-75
2022/05/21 02:22:57;;;;;;;15.32;4.05;;;;;;;;;;5032134;28;20030;-75
2022/05/21 02:25:23;;;;;;;15.93;3.63;;;;;;;;;;5031863;28;20533;-75
2022/05/21 02:27:49;;;;;;;10.98;4.05;;;;;;;;;;5030905;28;20036;-74
2022/05/21 02:30:15;;;;;;;17.27;4.68;;;;;;;;;;5031637;28;20025;-73
2022/05/21 02:32:41;;;;;;;15.70;5.40;;;;;;;;;;5031877;28;20398;-74
2022/05/21 02:35:07;;;;;;;13.07;4.65;;;;;;;;;;5030586;28;20022;-74
2022/05/21 02:40:18;;;;;;;16.00;4.57;;;;;;;;;;5035350;28;20072;-77
2022/05/21 02:42:45;;;;;;;10.95;4.03;;;;;;;;;;5036677;28;20033;-75
2022/05/21 02:45:12;;;;;;;13.32;4.80;;;;;;;;;;5036125;28;20064;-77
2022/05/21 02:47:38;;;;;;;13.77;4.45;;;;;;;;;;5035363;28;20045;-77
2022/05/21 02:50:05;;;;;;;11.35;3.85;;;;;;;;;;5036244;28;20378;-74
2022/05/21 02:52:31;;;;;;;15.35;3.80;;;;;;;;;;5038307;28;20030;-76
2022/05/21 02:54:57;;;;;;;13.38;4.20;;;;;;;;;;5046140;28;20029;-77
2022/05/21 02:57:23;;;;;;;14.23;4.20;;;;;;;;;;5035704;28;20436;-76
2022/05/21 02:59:50;;;;;;;12.52;4.10;;;;;;;;;;5036119;28;20049;-76
2022/05/21 03:02:16;;;;;;;9.77;3.50;;;;;;;;;;5035954;28;20466;-75
2022/05/21 03:04:42;;;;;;;15.15;4.10;;;;;;;;;;5039449;28;20441;-71
2022/05/21 03:07:08;;;;;;;14.23;4.68;;;;;;;;;;5059628;28;20018;-73
2022/05/21 03:12:19;;;;;;;14.57;4.18;;;;;;;;;;5043194;28;20041;-76
2022/05/21 03:14:45;;;;;;;10.00;4.80;;;;;;;;;;5046204;28;20030;-77
2022/05/21 03:17:12;;;;;;;9.55;4.45;;;;;;;;;;5047653;28;20030;-76
2022/05/21 03:19:39;;;;;;;14.20;5.68;;;;;;;;;;5042851;28;20017;-78
2022/05/21 03:22:05;;;;;;;10.07;4.35;;;;;;;;;;5043986;28;20030;-76
2022/05/21 03:24:31;;;;;;;12.80;4.85;;;;;;;;;;5046722;28;20033;-76
2022/05/21 03:26:57;;;;;;;14.05;5.07;;;;;;;;;;5045791;28;20055;-77
2022/05/21 03:29:23;;;;;;;10.65;4.30;;;;;;;;;;5049221;28;20052;-76
2022/05/21 03:31:49;;;;;;;17.60;4.65;;;;;;;;;;5037533;28;20108;-78
2022/05/21 03:34:15;;;;;;;15.80;4.80;;;;;;;;;;5038529;28;20026;-77
2022/05/21 03:36:41;;;;;;;12.35;4.20;;;;;;;;;;5037434;28;20021;-77
2022/05/21 03:39:07;;;;;;;14.95;4.47;;;;;;;;;;5036742;28;20097;-77
2022/05/21 03:41:36;;;;;;;10.90;4.00;;;;;;;;;;5038763;28;20431;-77
2022/05/21 03:44:01;;;;;;;9.32;3.67;;;;;;;;;;5036489;28;20026;-77
2022/05/21 03:46:27;;;;;;;15.93;4.30;;;;;;;;;;5035669;28;20022;-77
2022/05/21 03:48:53;;;;;;;12.45;3.33;;;;;;;;;;5042022;28;20402;-76
2022/05/21 03:51:19;;;;;;;11.57;3.50;;;;;;;;;;5046202;28;20462;-74
2022/05/21 03:53:45;;;;;;;11.77;3.10;;;;;;;;;;5047753;28;20033;-77
2022/05/21 03:56:11;;;;;;;14.07;3.58;;;;;;;;;;5047578;28;20026;-76
2022/05/21 03:58:37;;;;;;;15.00;3.83;;;;;;;;;;5042799;28;20029;-75
2022/05/21 04:01:03;;;;;;;12.45;3.88;;;;;;;;;;5042032;28;20055;-76
2022/05/21 04:03:30;;;;;;;12.65;3.50;;;;;;;;;;5046725;28;20030;-78
2022/05/21 04:05:57;;;;;;;12.23;3.47;;;;;;;;;;5043679;28;20047;-77
2022/05/21 04:08:24;;;;;;;10.70;3.35;;;;;;;;;;5040451;28;20029;-78
2022/05/21 04:10:51;;;;;;;8.93;3.53;;;;;;;;;;5039191;28;20060;-78
2022/05/21 04:13:17;;;;;;;11.57;3.95;;;;;;;;;;5039122;28;20387;-79
2022/05/21 04:15:43;;;;;;;13.65;3.55;;;;;;;;;;5039342;28;20022;-77
2022/05/21 04:18:09;;;;;;;12.68;4.28;;;;;;;;;;5037274;28;20093;-76
2022/05/21 04:20:35;;;;;;;9.00;4.35;;;;;;;;;;5040385;28;20163;-77
2022/05/21 04:23:01;;;;;;;9.27;4.40;;;;;;;;;;5035606;28;20061;-75
2022/05/21 04:25:27;;;;;;;14.68;5.30;;;;;;;;;;5035206;28;20044;-75
2022/05/21 04:27:53;;;;;;;13.20;6.65;;;;;;;;;;5036439;28;20041;-77
2022/05/21 04:30:20;;;;;;;15.10;6.53;;;;;;;;;;5034590;28;20029;-77
2022/05/21 04:32:46;;;;;;;19.60;7.70;;;;;;;;;;5034056;28;20030;-77
2022/05/21 04:35:13;;;;;;;14.48;6.68;;;;;;;;;;5033816;28;20045;-75
2022/05/21 04:37:39;;;;;;;18.02;7.03;;;;;;;;;;5033904;28;20485;-76
2022/05/21 04:40:06;;;;;;;17.02;7.82;;;;;;;;;;5033786;28;20017;-75
2022/05/21 04:42:32;;;;;;;21.33;9.20;;;;;;;;;;5034388;28;20430;-75
2022/05/21 04:44:58;;;;;;;23.40;10.23;;;;;;;;;;5038592;28;20090;-78
2022/05/21 04:47:24;;;;;;;19.33;9.00;;;;;;;;;;5043259;28;20029;-77
2022/05/21 04:49:50;;;;;;;22.48;10.25;;;;;;;;;;5041492;28;20040;-77
2022/05/21 04:52:16;;;;;;;26.77;11.25;;;;;;;;;;5039078;28;20056;-77
2022/05/21 04:54:42;;;;;;;25.88;11.27;;;;;;;;;;5042925;28;20105;-77
2022/05/21 04:57:08;;;;;;;22.75;11.35;;;;;;;;;;5041775;28;20025;-78
2022/05/21 04:59:34;;;;;;;30.02;11.68;;;;;;;;;;5036705;28;20394;-77
2022/05/21 05:02:00;;;;;;;20.27;10.75;;;;;;;;;;5042383;28;20029;-77
2022/05/21 05:04:26;;;;;;;21.35;11.07;;;;;;;;;;5038532;28;20532;-77
2022/05/21 05:06:52;;;;;;;23.05;12.68;;;;;;;;;;5036829;28;20104;-77
2022/05/21 05:09:22;;;;;;;28.45;14.05;;;;;;;;;;5035905;28;20116;-76
2022/05/21 05:11:49;;;;;;;26.65;14.50;;;;;;;;;;5040252;28;20108;-77
2022/05/21 05:14:15;;;;;;;32.33;15.52;;;;;;;;;;5051459;28;20018;-76
2022/05/21 05:16:41;;;;;;;32.75;16.25;;;;;;;;;;5043880;28;20113;-76
2022/05/21 05:19:07;;;;;;;29.00;16.40;;;;;;;;;;5042316;28;20056;-76
2022/05/21 05:21:32;;;;;;;29.23;16.15;;;;;;;;;;5044262;28;20032;-78
2022/05/21 05:23:58;;;;;;;40.75;17.77;;;;;;;;;;5047371;28;20032;-76
2022/05/21 05:26:25;;;;;;;44.83;20.13;;;;;;;;;;5041627;28;20533;-75
2022/05/21 05:28:51;;;;;;;38.50;20.13;;;;;;;;;;5033453;28;20087;-74
2022/05/21 05:31:17;;;;;;;31.83;19.98;;;;;;;;;;5034207;28;20498;-76
2022/05/21 05:33:43;;;;;;;43.08;22.80;;;;;;;;;;5033866;28;20528;-77
2022/05/21 05:36:09;;;;;;;35.90;21.85;;;;;;;;;;5035509;28;20021;-77
2022/05/21 05:38:35;;;;;;;32.00;21.60;;;;;;;;;;5037431;28;20034;-76
2022/05/21 05:41:01;;;;;;;39.05;23.40;;;;;;;;;;5039389;28;20032;-78
2022/05/21 05:43:27;;;;;;;39.25;23.52;;;;;;;;;;5038053;28;20026;-77
2022/05/21 05:45:58;;;;;;;41.58;24.33;;;;;;;;;;5037836;28;20033;-76
2022/05/21 05:48:24;;;;;;;38.50;24.55;;;;;;;;;;5036272;28;20420;-77
2022/05/21 05:50:50;;;;;;;39.70;23.27;;;;;;;;;;5035312;28;20112;-77
2022/05/21 05:53:16;;;;;;;38.70;23.15;;;;;;;;;;5036701;28;20045;-78
2022/05/21 05:55:42;;;;;;;46.63;23.55;;;;;;;;;;5038777;28;20100;-76
2022/05/21 06:00:53;;;;;;;37.17;23.95;;;;;;;;;;5040741;28;20048;-76
2022/05/21 06:03:20;;;;;;;42.80;24.73;;;;;;;;;;5040785;28;20037;-75
2022/05/21 06:05:46;;;;;;;42.50;25.80;;;;;;;;;;5041146;28;20036;-78
2022/05/21 06:08:13;;;;;;;43.15;25.98;;;;;;;;;;5039203;28;20026;-78
2022/05/21 06:10:40;;;;;;;39.95;25.48;;;;;;;;;;5037285;28;20105;-77
2022/05/21 06:13:07;;;;;;;46.97;26.35;;;;;;;;;;5040494;28;20022;-78
2022/05/21 06:15:33;;;;;;;35.85;25.88;;;;;;;;;;5046039;28;20486;-76
2022/05/21 06:18:05;;;;;;;43.67;26.38;;;;;;;;;;5048387;28;20036;-76
2022/05/21 06:20:30;;;;;;;39.80;25.38;;;;;;;;;;5049282;28;20016;-76
2022/05/21 06:22:56;;;;;;;41.85;26.38;;;;;;;;;;5046487;28;20402;-79
2022/05/21 06:25:25;;;;;;;38.10;25.52;;;;;;;;;;5044353;28;20108;-77
2022/05/21 06:27:52;;;;;;;38.67;25.63;;;;;;;;;;5046591;28;20028;-75
2022/05/21 06:30:18;;;;;;;45.08;26.38;;;;;;;;;;5045782;28;20029;-76
2022/05/21 06:32:45;;;;;;;46.90;27.15;;;;;;;;;;5042947;28;20026;-77
2022/05/21 06:35:11;;;;;;;41.88;26.23;;;;;;;;;;5044900;28;20022;-77
2022/05/21 06:37:38;;;;;;;45.38;26.92;;;;;;;;;;5045952;28;20037;-76
2022/05/21 06:40:04;;;;;;;45.17;25.60;;;;;;;;;;5050873;28;20021;-77
2022/05/21 06:42:30;;;;;;;42.85;25.25;;;;;;;;;;5046196;28;20033;-77
2022/05/21 06:44:56;;;;;;;40.63;25.80;;;;;;;;;;5044017;28;20029;-77
2022/05/21 06:47:22;;;;;;;58.53;25.98;;;;;;;;;;5043536;28;20029;-76
2022/05/21 06:49:48;;;;;;;45.05;24.75;;;;;;;;;;5043620;28;20032;-77
2022/05/21 06:52:14;;;;;;;46.03;23.63;;;;;;;;;;5053255;28;20037;-76
2022/05/21 06:54:40;;;;;;;43.28;24.02;;;;;;;;;;5057945;28;20017;-76
2022/05/21 06:57:08;;;;;;;46.60;26.55;;;;;;;;;;5063825;28;20033;-73
2022/05/21 06:59:34;;;;;;;52.63;24.17;;;;;;;;;;5063907;28;20013;-74
2022/05/21 07:02:00;;;;;;;45.72;22.92;;;;;;;;;;5063755;28;20017;-75
2022/05/21 07:10:04;;;;;;;43.20;22.08;;;;;;;;;;5044893;28;20465;-79
2022/05/21 07:12:30;;;;;;;38.63;20.02;;;;;;;;;;5045081;28;20033;-80
2022/05/21 07:14:56;;;;;;;37.92;19.27;;;;;;;;;;5044237;28;20029;-76
2022/05/21 07:17:22;;;;;;;41.58;19.67;;;;;;;;;;5044006;28;20032;-76
2022/05/21 07:19:48;;;;;;;38.03;19.75;;;;;;;;;;5050319;28;20025;-75
2022/05/21 07:22:14;;;;;;;36.92;20.00;;;;;;;;;;5053281;28;20036;-76
2022/05/21 07:24:42;;;;;;;44.80;20.35;;;;;;;;;;5045186;28;20043;-77
2022/05/21 07:27:08;;;;;;;37.10;17.90;;;;;;;;;;5044474;28;20393;-78
2022/05/21 07:29:37;;;;;;;34.20;17.80;;;;;;;;;;5041493;28;20041;-75
2022/05/21 07:32:03;;;;;;;32.83;17.50;;;;;;;;;;5041999;28;20061;-78
2022/05/21 07:34:29;;;;;;;40.35;18.25;;;;;;;;;;5040676;28;20032;-77
2022/05/21 07:36:55;;;;;;;35.63;16.95;;;;;;;;;;5039869;28;20022;-77
2022/05/21 07:39:21;;;;;;;38.25;17.92;;;;;;;;;;5037051;28;20459;-76
2022/05/21 07:41:48;;;;;;;31.40;16.35;;;;;;;;;;5040768;28;20129;-77
2022/05/21 07:44:13;;;;;;;31.27;15.20;;;;;;;;;;5041443;28;20088;-77
2022/05/21 07:46:39;;;;;;;36.45;14.75;;;;;;;;;;5045684;28;20025;-78
2022/05/21 07:49:05;;;;;;;33.78;13.80;;;;;;;;;;5044602;28;20030;-79
2022/05/21 07:51:32;;;;;;;27.90;13.45;;;;;;;;;;5041530;28;20113;-77
2022/05/21 07:53:58;;;;;;;30.75;12.48;;;;;;;;;;5040072;28;20014;-77
2022/05/21 07:56:25;;;;;;;28.58;11.63;;;;;;;;;;5040210;28;20057;-77
2022/05/21 07:58:51;;;;;;;30.45;10.50;;;;;;;;;;5042477;28;20086;-78
2022/05/21 08:01:17;;;;;;;28.48;10.93;;;;;;;;;;5043268;28;20387;-78
2022/05/21 08:03:43;;;;;;;23.63;10.77;;;;;;;;;;5041580;28;20045;-78
2022/05/21 08:06:09;;;;;;;28.83;9.88;;;;;;;;;;5040275;28;20029;-76
2022/05/21 08:08:36;;;;;;;23.75;10.45;;;;;;;;;;5038522;28;20125;-77
2022/05/21 08:11:02;;;;;;;28.13;10.93;;;;;;;;;;5038898;28;20025;-75
2022/05/21 08:13:29;;;;;;;26.60;10.23;;;;;;;;;;5039277;28;20022;-78
2022/05/21 08:15:56;;;;;;;28.63;10.02;;;;;;;;;;5038768;28;20106;-77
2022/05/21 08:18:22;;;;;;;27.10;10.02;;;;;;;;;;5038790;28;20257;-78
2022/05/21 08:20:50;;;;;;;24.92;9.45;;;;;;;;;;5039179;28;20029;-77
2022/05/21 08:28:46;;;;;;;;;;;;;;;;;;5042557;28;20084;-75
2022/05/21 08:31:12;;;;;;;20.52;7.22;;;;;;;;;;5039610;28;19913;-78
2022/05/21 08:33:38;;;;;;;15.02;5.30;;;;;;;;;;5040410;28;20033;-76
2022/05/21 08:36:04;;;;;;;17.25;5.38;;;;;;;;;;5042088;28;20013;-77
2022/05/21 08:38:30;;;;;;;14.70;4.30;;;;;;;;;;5041722;28;20101;-77
2022/05/21 08:40:59;;;;;;;80.00;40.30;;;;;;;;;;5040381;28;20083;-77
2022/05/21 08:43:33;;;;;;;19.05;5.85;;;;;;;;;;5038940;28;20037;-75
2022/05/21 08:46:15;;;;;;;16.00;4.57;;;;;;;;;;5038616;28;20104;-77
2022/05/21 08:48:44;;;;;;;14.05;3.75;;;;;;;;;;5038155;28;20087;-77
2022/05/21 08:51:18;;;;;;;16.23;3.40;;;;;;;;;;5040098;28;20024;-77
2022/05/21 08:53:49;;;;;;;14.97;3.57;;;;;;;;;;5040831;28;20502;-77
2022/05/21 08:56:14;;;;;;;9.52;2.80;;;;;;;;;;5040554;28;20324;-79
2022/05/21 08:58:48;;;;;;;12.60;2.67;;;;;;;;;;5039918;28;20025;-79
2022/05/21 09:01:19;;;;;;;12.03;2.73;;;;;;;;;;5040898;28;20021;-79
2022/05/21 09:03:45;;;;;;;13.38;3.10;;;;;;;;;;5038017;28;20036;-76
2022/05/21 09:06:20;;;;;;;16.35;4.63;;;;;;;;;;5040502;28;20037;-77
2022/05/21 09:09:05;;;;;;;15.23;2.80;;;;;;;;;;5036982;28;20030;-76
2022/05/21 09:11:43;;;;;;;20.67;3.05;;;;;;;;;;5035087;28;20112;-76
2022/05/21 09:14:28;;;;;;;16.38;2.88;;;;;;;;;;5040374;28;20026;-75
2022/05/21 09:16:54;;;;;;;16.13;3.10;;;;;;;;;;5039096;28;20104;-77
2022/05/21 09:19:22;;;;;;;13.25;2.75;;;;;;;;;;5043811;28;20052;-74
2022/05/21 09:21:50;;;;;;;8.25;2.10;;;;;;;;;;5057121;28;20077;-73
2022/05/21 09:24:35;;;;;;;11.40;2.80;;;;;;;;;;5056226;28;20038;-78
2022/05/21 09:27:01;;;;;;;12.60;2.65;;;;;;;;;;5038644;28;20025;-76
2022/05/21 09:29:27;;;;;;;17.80;3.95;;;;;;;;;;5038246;28;20410;-77
2022/05/21 09:31:54;;;;;;;17.80;3.45;;;;;;;;;;5042226;28;20077;-76
2022/05/21 09:34:25;;;;;;;20.20;3.05;;;;;;;;;;5041598;28;20104;-77
2022/05/21 09:36:51;;;;;;;16.15;3.22;;;;;;;;;;5036922;28;20033;-77
2022/05/21 09:39:32;;;;;;;19.15;3.10;;;;;;;;;;5044962;28;20028;-75
2022/05/21 09:42:10;;;;;;;16.38;3.00;;;;;;;;;;5056244;28;20025;-75
2022/05/21 09:47:23;;;;;;;11.85;2.42;;;;;;;;;;5055521;28;20101;-77
2022/05/21 09:50:09;;;;;;;14.65;2.83;;;;;;;;;;5056165;28;20037;-76
2022/05/21 09:52:36;;;;;;;10.88;2.58;;;;;;;;;;5049304;28;20043;-78
2022/05/21 09:55:03;;;;;;;22.52;2.90;;;;;;;;;;5043863;28;20036;-76
2022/05/21 09:57:37;;;;;;;16.42;4.07;;;;;;;;;;5039634;28;20021;-77
2022/05/21 10:00:04;;;;;;;12.23;2.43;;;;;;;;;;5039220;28;20088;-77
2022/05/21 10:02:38;;;;;;;8.10;1.73;;;;;;;;;;5040499;28;20346;-78
2022/05/21 10:05:04;;;;;;;;;;;;;;;;;;5035677;28;20025;-77
2022/05/21 10:10:58;;;;;;;14.50;2.45;;;;;;;;;;5036659;28;20052;-79
2022/05/21 10:13:25;;;;;;;8.10;2.05;;;;;;;;;;5034207;28;20030;-78
2022/05/21 10:15:59;;;;;;;19.10;2.65;;;;;;;;;;5034621;28;20045;-76
2022/05/21 10:18:32;;;;;;;14.77;2.30;;;;;;;;;;5037042;28;20025;-77
2022/05/21 10:21:02;;;;;;;13.77;3.23;;;;;;;;;;5038417;28;20021;-77
2022/05/21 10:23:41;;;;;;;11.25;2.22;;;;;;;;;;5036130;28;20022;-77
2022/05/21 10:26:26;;;;;;;18.10;3.13;;;;;;;;;;5036148;28;20064;-79
2022/05/21 10:29:09;;;;;;;14.82;3.00;;;;;;;;;;5043644;28;20036;-78
2022/05/21 10:31:38;;;;;;;11.73;2.55;;;;;;;;;;5040204;28;20057;-76
2022/05/21 10:34:23;;;;;;;11.23;2.72;;;;;;;;;;5041700;28;20030;-77
2022/05/21 10:36:58;;;;;;;13.32;2.38;;;;;;;;;;5040939;28;20117;-77
2022/05/21 10:39:42;;;;;;;20.60;2.75;;;;;;;;;;5044344;28;20026;-76
2022/05/21 10:42:27;;;;;;;15.20;2.85;;;;;;;;;;5044609;28;20025;-77
2022/05/21 10:44:56;;;;;;;11.40;2.42;;;;;;;;;;5046769;28;20030;-76
2022/05/21 10:47:40;;;;;;;15.98;2.40;;;;;;;;;;5049389;28;20030;-76
2022/05/21 10:50:10;;;;;;;15.93;2.88;;;;;;;;;;5050367;28;20057;-77
2022/05/21 10:52:57;;;;;;;15.82;2.53;;;;;;;;;;5041083;28;20048;-77
2022/05/21 10:55:22;;;;;;;15.38;2.80;;;;;;;;;;5035475;28;20053;-77
2022/05/21 10:58:04;;;;;;;10.30;2.53;;;;;;;;;;5038243;28;20048;-77
2022/05/21 11:00:39;;;;;;;11.40;2.40;;;;;;;;;;5039188;28;20064;-77
2022/05/21 11:03:18;;;;;;;10.85;2.80;;;;;;;;;;5040539;28;20030;-77
2022/05/21 11:05:52;;;;;;;17.27;2.80;;;;;;;;;;5038084;28;20494;-77
2022/05/21 11:08:23;;;;;;;12.45;2.08;;;;;;;;;;5037304;28;20033;-76
2022/05/21 11:10:52;;;;;;;12.45;2.20;;;;;;;;;;5040033;28;20053;-79
2022/05/21 11:13:21;;;;;;;15.75;2.08;;;;;;;;;;5043272;28;20112;-77
2022/05/21 11:15:52;;;;;;;17.17;2.28;;;;;;;;;;5041227;28;20033;-77
2022/05/21 11:18:32;;;;;;;16.00;2.50;;;;;;;;;;5039578;28;20100;-77
2022/05/21 11:21:04;;;;;;;12.85;2.47;;;;;;;;;;5039245;28;20022;-77
2022/05/21 11:23:39;;;;;;;12.48;2.45;;;;;;;;;;5042520;28;20079;-77
2022/05/21 11:26:16;;;;;;;15.13;2.70;;;;;;;;;;5038639;28;20029;-79
2022/05/21 11:28:46;;;;;;;13.82;2.00;;;;;;;;;;5043260;28;20040;-79
2022/05/21 11:37:19;;;;;;;9.98;2.28;;;;;;;;;;5041940;28;20029;-76
2022/05/21 11:39:39;;;;;;;9.18;2.10;;;;;;;;;;5044958;28;20095;-78
2022/05/21 11:42:08;;;;;;;12.98;2.35;;;;;;;;;;5045546;28;20104;-75
2022/05/21 11:45:01;;;;;;;13.10;2.10;;;;;;;;;;5037891;28;20437;-75
2022/05/21 11:47:27;;;;;;;16.05;2.42;;;;;;;;;;5040219;28;20022;-77
2022/05/21 11:49:56;;;;;;;11.15;2.15;;;;;;;;;;5039895;28;20032;-76
2022/05/21 11:52:28;;;;;;;16.55;2.70;;;;;;;;;;5040423;28;20095;-77
2022/05/21 11:54:54;;;;;;;23.45;2.58;;;;;;;;;;5042683;28;20081;-75
2022/05/21 11:57:38;;;;;;;19.83;3.50;;;;;;;;;;5040877;28;20049;-75
2022/05/21 12:00:26;;;;;;;17.00;3.50;;;;;;;;;;5040275;28;20032;-76
2022/05/21 12:02:54;;;;;;;19.10;4.53;;;;;;;;;;5045293;28;20044;-78
2022/05/21 12:05:37;;;;;;;15.98;3.10;;;;;;;;;;5044803;28;20029;-77
2022/05/21 12:08:10;;;;;;;17.25;2.40;;;;;;;;;;5045532;28;20521;-77
2022/05/21 12:10:54;;;;;;;14.25;3.05;;;;;;;;;;5038150;28;20017;-77
2022/05/21 12:13:22;;;;;;;20.42;3.42;;;;;;;;;;5037616;28;20032;-78
2022/05/21 12:15:48;;;;;;;11.93;2.00;;;;;;;;;;5034205;28;20014;-77
2022/05/21 12:18:26;;;;;;;14.90;2.20;;;;;;;;;;5035160;28;20359;-77
2022/05/21 12:20:52;;;;;;;11.23;2.53;;;;;;;;;;5034948;28;20387;-76
2022/05/21 12:23:38;;;;;;;13.48;2.10;;;;;;;;;;5035991;28;20061;-76
2022/05/21 12:26:05;;;;;;;13.15;2.38;;;;;;;;;;5045480;28;20060;-75
2022/05/21 12:28:35;;;;;;;15.90;2.10;;;;;;;;;;5057352;28;20025;-75
2022/05/21 12:31:13;;;;;;;17.95;2.47;;;;;;;;;;5054998;28;20057;-76
2022/05/21 12:33:43;;;;;;;15.15;3.00;;;;;;;;;;5054447;28;20057;-75
2022/05/21 12:36:17;;;;;;;17.45;2.63;;;;;;;;;;5054137;28;20036;-74
2022/05/21 12:38:46;;;;;;;14.70;2.38;;;;;;;;;;5054722;28;20044;-75
2022/05/21 12:41:12;;;;;;;19.23;2.70;;;;;;;;;;5035955;28;20426;-75
2022/05/21 12:43:48;;;;;;;9.55;2.15;;;;;;;;;;5040574;28;20082;-76
2022/05/21 12:46:19;;;;;;;12.50;1.80;;;;;;;;;;5053973;28;20550;-74
2022/05/21 12:48:46;;;;;;;9.05;1.77;;;;;;;;;;5053147;28;20013;-74
2022/05/21 12:51:21;;;;;;;7.72;1.65;;;;;;;;;;5033901;28;20036;-75
2022/05/21 12:53:48;;;;;;;11.68;2.45;;;;;;;;;;5033790;28;20045;-77
2022/05/21 12:56:40;;;;;;;11.90;1.77;;;;;;;;;;5033301;28;20095;-74
2022/05/21 12:59:06;;;;;;;9.63;2.17;;;;;;;;;;5032522;28;20138;-74
2022/05/21 13:01:34;;;;;;;11.70;1.80;;;;;;;;;;5034562;28;20021;-76
2022/05/21 13:04:02;;;;;;;10.05;2.08;;;;;;;;;;5032486;28;20037;-76
2022/05/21 13:06:29;;;;;;;10.70;2.17;;;;;;;;;;5032996;28;20119;-76
2022/05/21 13:08:56;;;;;;;14.85;2.35;;;;;;;;;;5033468;28;20032;-76
2022/05/21 13:11:23;;;;;;;15.85;2.42;;;;;;;;;;5032628;28;20102;-77
2022/05/21 13:13:56;;;;;;;8.50;2.15;;;;;;;;;;5035870;28;20059;-76
2022/05/21 13:16:23;;;;;;;12.05;3.00;;;;;;;;;;5034271;28;20414;-76
2022/05/21 13:19:08;;;;;;;14.35;2.20;;;;;;;;;;5045654;28;20458;-79
2022/05/21 13:21:53;;;;;;;12.07;2.10;;;;;;;;;;5043729;28;20021;-76
2022/05/21 13:24:43;;;;;;;15.25;2.17;;;;;;;;;;5038138;28;20029;-76
2022/05/21 13:27:11;;;;;;;14.43;2.63;;;;;;;;;;5034795;28;20047;-77
2022/05/21 13:29:38;;;;;;;10.65;2.10;;;;;;;;;;5032299;28;20402;-76
2022/05/21 13:32:34;;;;;;;12.30;2.33;;;;;;;;;;5032950;28;20463;-76
2022/05/21 13:34:59;;;;;;;;;;;;;;;;;;5029198;28;20099;-77
2022/05/21 13:37:39;;;;;;;10.90;2.22;;;;;;;;;;5032448;28;20429;-74
2022/05/21 13:40:16;;;;;;;9.73;2.42;;;;;;;;;;5033217;28;20022;-75
2022/05/21 13:42:44;;;;;;;15.13;2.35;;;;;;;;;;5033845;28;20162;-76
2022/05/21 13:45:21;;;;;;;13.98;2.60;;;;;;;;;;5033988;28;20025;-76
2022/05/21 13:47:50;;;;;;;17.60;3.03;;;;;;;;;;5034802;28;20033;-73
2022/05/21 13:50:18;;;;;;;14.65;2.55;;;;;;;;;;5033325;28;20029;-74
2022/05/21 13:52:44;;;;;;;13.65;2.40;;;;;;;;;;5034874;28;20049;-74
2022/05/21 13:55:12;;;;;;;16.25;3.55;;;;;;;;;;5032827;28;20076;-76
2022/05/21 13:57:38;;;;;;;10.50;2.65;;;;;;;;;;5032953;28;20087;-73
2022/05/21 14:00:14;;;;;;;12.63;2.33;;;;;;;;;;5032862;28;20025;-74
2022/05/21 14:02:42;;;;;;;12.02;2.10;;;;;;;;;;5033023;28;20501;-75
2022/05/21 14:05:32;;;;;;;8.85;1.67;;;;;;;;;;5030283;28;20087;-76
2022/05/21 14:08:00;;;;;;;12.50;2.42;;;;;;;;;;5032541;28;20723;-76
2022/05/21 14:10:37;;;;;;;14.43;2.00;;;;;;;;;;5032111;28;20655;-74
2022/05/21 14:13:05;;;;;;;14.60;2.55;;;;;;;;;;5031956;28;20128;-75
2022/05/21 14:15:36;;;;;;;13.15;3.00;;;;;;;;;;5030418;28;20021;-76
2022/05/21 14:18:04;;;;;;;12.02;2.35;;;;;;;;;;5031037;28;20040;-75
2022/05/21 14:20:30;;;;;;;19.08;2.78;;;;;;;;;;5031877;28;20486;-76
2022/05/21 14:23:19;;;;;;;12.05;3.03;;;;;;;;;;5032008;28;20029;-74
2022/05/21 14:25:45;;;;;;;29.67;2.58;;;;;;;;;;5031412;28;20475;-76
2022/05/21 14:28:17;;;;;;;21.20;3.15;;;;;;;;;;5031819;28;20038;-76
2022/05/21 14:30:44;;;;;;;9.63;2.70;;;;;;;;;;5031670;28;20025;-76
2022/05/21 14:33:18;;;;;;;12.57;2.20;;;;;;;;;;5035403;28;20018;-76
2022/05/21 14:35:49;;;;;;;13.57;2.00;;;;;;;;;;5035321;28;20524;-76
2022/05/21 14:38:19;;;;;;;12.65;2.20;;;;;;;;;;5036062;28;20021;-76
2022/05/21 14:40:48;;;;;;;15.30;2.55;;;;;;;;;;5036202;28;20018;-76
2022/05/21 14:43:22;;;;;;;16.10;2.63;;;;;;;;;;5036480;28;20021;-76
2022/05/21 14:45:47;;;;;;;15.25;2.95;;;;;;;;;;5035149;28;20494;-75
2022/05/21 14:48:13;;;;;;;13.93;2.42;;;;;;;;;;5036019;28;20029;-77
2022/05/21 14:53:26;;;;;;;20.67;2.50;;;;;;;;;;5038157;28;20128;-74
2022/05/21 14:55:52;;;;;;;21.83;2.92;;;;;;;;;;5034124;28;20110;-76
2022/05/21 14:58:18;;;;;;;12.38;2.85;;;;;;;;;;5035723;28;20021;-76
2022/05/21 15:00:45;;;;;;;17.65;2.53;;;;;;;;;;5036869;28;20467;-75
2022/05/21 15:03:11;;;;;;;15.57;2.60;;;;;;;;;;5036156;28;20039;-75
2022/05/21 15:05:40;;;;;;;13.15;2.60;;;;;;;;;;5035239;28;20038;-75
2022/05/21 15:08:06;;;;;;;19.95;2.50;;;;;;;;;;5035872;28;20517;-75
2022/05/21 15:10:32;;;;;;;18.38;2.95;;;;;;;;;;5037502;28;20014;-76
2022/05/21 15:12:58;;;;;;;13.98;2.53;;;;;;;;;;5054288;28;20053;-76
2022/05/21 15:15:24;;;;;;;16.00;2.40;;;;;;;;;;5049610;28;20026;-74
2022/05/21 15:17:50;;;;;;;16.90;3.20;;;;;;;;;;5054609;28;20076;-73